sensor_id;sensor_type;location;lat;lon;timestamp;P1;durP1;ratioP1;P2;durP2;ratioP2
4047;SDS011;2038;51.728;6.674;2023-08-31T00:00:48;3.60;;;2.57;;
4047;SDS011;2038;51.728;6.674;2023-08-31T00:03:18;8.47;;;3.30;;
4047;SDS011;2038;51.728;6.674;2023-08-31T00:05:44;4.07;;;2.93;;
4047;SDS011;2038;51.728;6.674;2023-08-31T00:08:11;4.20;;;2.77;;
4047;SDS011;2038;51.728;6.674;2023-08-31T00:10:38;9.30;;;3.30;;
4047;SDS011;2038;51.728;6.674;2023-08-31T00:13:05;3.17;;;2.47;;
4047;SDS011;2038;51.728;6.674;2023-08-31T00:15:32;4.30;;;3.07;;
4047;SDS011;2038;51.728;6.674;2023-08-31T00:18:00;3.27;;;2.97;;
4047;SDS011;2038;51.728;6.674;2023-08-31T00:20:30;4.10;;;3.23;;
4047;SDS011;2038;51.728;6.674;2023-08-31T00:22:58;3.93;;;2.60;;
4047;SDS011;2038;51.728;6.674;2023-08-31T00:25:25;5.57;;;3.20;;
4047;SDS011;2038;51.728;6.674;2023-08-31T00:27:51;5.60;;;3.10;;
4047;SDS011;2038;51.728;6.674;2023-08-31T00:30:18;6.60;;;3.40;;
4047;SDS011;2038;51.728;6.674;2023-08-31T00:32:45;6.30;;;3.20;;
4047;SDS011;2038;51.728;6.674;2023-08-31T00:35:15;6.03;;;3.67;;
4047;SDS011;2038;51.728;6.674;2023-08-31T00:37:42;7.50;;;3.63;;
4047;SDS011;2038;51.728;6.674;2023-08-31T00:40:08;4.97;;;3.33;;
4047;SDS011;2038;51.728;6.674;2023-08-31T00:42:38;5.27;;;3.87;;
4047;SDS011;2038;51.728;6.674;2023-08-31T00:45:05;5.20;;;3.53;;
4047;SDS011;2038;51.728;6.674;2023-08-31T00:47:32;4.17;;;3.63;;
4047;SDS011;2038;51.728;6.674;2023-08-31T00:49:58;4.87;;;3.70;;
4047;SDS011;2038;51.728;6.674;2023-08-31T00:52:26;8.33;;;4.47;;
4047;SDS011;2038;51.728;6.674;2023-08-31T00:54:52;8.63;;;4.37;;
4047;SDS011;2038;51.728;6.674;2023-08-31T00:57:19;7.40;;;4.60;;
4047;SDS011;2038;51.728;6.674;2023-08-31T00:59:45;7.30;;;4.83;;
4047;SDS011;2038;51.728;6.674;2023-08-31T01:08:19;8.07;;;5.23;;
4047;SDS011;2038;51.728;6.674;2023-08-31T01:13:43;10.00;;;5.97;;
4047;SDS011;2038;51.728;6.674;2023-08-31T01:16:21;11.80;;;6.20;;
4047;SDS011;2038;51.728;6.674;2023-08-31T01:18:50;8.20;;;6.17;;
4047;SDS011;2038;51.728;6.674;2023-08-31T01:21:24;8.50;;;5.73;;
4047;SDS011;2038;51.728;6.674;2023-08-31T01:24:02;11.20;;;6.23;;
4047;SDS011;2038;51.728;6.674;2023-08-31T01:26:31;8.57;;;5.80;;
4047;SDS011;2038;51.728;6.674;2023-08-31T01:28:58;13.50;;;6.60;;
4047;SDS011;2038;51.728;6.674;2023-08-31T01:31:25;8.30;;;5.57;;
4047;SDS011;2038;51.728;6.674;2023-08-31T01:33:51;9.20;;;5.57;;
4047;SDS011;2038;51.728;6.674;2023-08-31T01:36:20;10.23;;;5.90;;
4047;SDS011;2038;51.728;6.674;2023-08-31T01:38:57;7.50;;;6.50;;
4047;SDS011;2038;51.728;6.674;2023-08-31T01:41:38;11.03;;;6.97;;
4047;SDS011;2038;51.728;6.674;2023-08-31T01:44:12;6.10;;;5.47;;
4047;SDS011;2038;51.728;6.674;2023-08-31T01:46:47;15.63;;;7.43;;
4047;SDS011;2038;51.728;6.674;2023-08-31T01:49:19;14.07;;;7.30;;
4047;SDS011;2038;51.728;6.674;2023-08-31T01:51:46;10.53;;;6.73;;
4047;SDS011;2038;51.728;6.674;2023-08-31T01:54:13;13.10;;;6.10;;
4047;SDS011;2038;51.728;6.674;2023-08-31T01:56:39;12.00;;;7.67;;
4047;SDS011;2038;51.728;6.674;2023-08-31T01:59:05;11.63;;;7.60;;
4047;SDS011;2038;51.728;6.674;2023-08-31T02:01:34;15.43;;;7.37;;
4047;SDS011;2038;51.728;6.674;2023-08-31T02:04:01;11.27;;;7.07;;
4047;SDS011;2038;51.728;6.674;2023-08-31T02:06:27;11.37;;;7.83;;
4047;SDS011;2038;51.728;6.674;2023-08-31T02:08:53;10.60;;;7.10;;
4047;SDS011;2038;51.728;6.674;2023-08-31T02:11:20;8.23;;;7.40;;
4047;SDS011;2038;51.728;6.674;2023-08-31T02:13:46;14.17;;;8.60;;
4047;SDS011;2038;51.728;6.674;2023-08-31T02:16:12;9.33;;;6.90;;
4047;SDS011;2038;51.728;6.674;2023-08-31T02:18:38;11.53;;;8.80;;
4047;SDS011;2038;51.728;6.674;2023-08-31T02:21:05;12.90;;;8.90;;
4047;SDS011;2038;51.728;6.674;2023-08-31T02:23:32;16.20;;;8.40;;
4047;SDS011;2038;51.728;6.674;2023-08-31T02:25:58;14.17;;;8.80;;
4047;SDS011;2038;51.728;6.674;2023-08-31T02:28:24;14.40;;;9.10;;
4047;SDS011;2038;51.728;6.674;2023-08-31T02:30:57;14.60;;;9.60;;
4047;SDS011;2038;51.728;6.674;2023-08-31T02:33:25;10.27;;;8.70;;
4047;SDS011;2038;51.728;6.674;2023-08-31T02:35:53;14.07;;;8.87;;
4047;SDS011;2038;51.728;6.674;2023-08-31T02:38:20;9.90;;;8.90;;
4047;SDS011;2038;51.728;6.674;2023-08-31T02:40:46;12.80;;;9.47;;
4047;SDS011;2038;51.728;6.674;2023-08-31T02:43:14;10.83;;;9.73;;
4047;SDS011;2038;51.728;6.674;2023-08-31T02:45:40;15.83;;;10.43;;
4047;SDS011;2038;51.728;6.674;2023-08-31T02:48:07;12.77;;;9.70;;
4047;SDS011;2038;51.728;6.674;2023-08-31T02:50:36;16.83;;;9.87;;
4047;SDS011;2038;51.728;6.674;2023-08-31T02:53:03;13.23;;;10.67;;
4047;SDS011;2038;51.728;6.674;2023-08-31T02:55:33;14.77;;;11.67;;
4047;SDS011;2038;51.728;6.674;2023-08-31T02:57:59;17.37;;;10.70;;
4047;SDS011;2038;51.728;6.674;2023-08-31T03:00:26;16.87;;;12.07;;
4047;SDS011;2038;51.728;6.674;2023-08-31T03:02:53;16.93;;;12.17;;
4047;SDS011;2038;51.728;6.674;2023-08-31T03:05:19;13.67;;;11.90;;
4047;SDS011;2038;51.728;6.674;2023-08-31T03:07:48;13.10;;;11.40;;
4047;SDS011;2038;51.728;6.674;2023-08-31T03:10:14;15.63;;;12.20;;
4047;SDS011;2038;51.728;6.674;2023-08-31T03:12:40;13.30;;;11.60;;
4047;SDS011;2038;51.728;6.674;2023-08-31T03:15:07;17.37;;;12.30;;
4047;SDS011;2038;51.728;6.674;2023-08-31T03:17:34;21.50;;;13.90;;
4047;SDS011;2038;51.728;6.674;2023-08-31T03:20:00;16.83;;;13.13;;
4047;SDS011;2038;51.728;6.674;2023-08-31T03:22:26;16.53;;;11.33;;
4047;SDS011;2038;51.728;6.674;2023-08-31T03:24:52;15.00;;;12.13;;
4047;SDS011;2038;51.728;6.674;2023-08-31T03:27:18;19.90;;;12.60;;
4047;SDS011;2038;51.728;6.674;2023-08-31T03:29:45;25.83;;;14.00;;
4047;SDS011;2038;51.728;6.674;2023-08-31T03:32:11;16.07;;;14.03;;
4047;SDS011;2038;51.728;6.674;2023-08-31T03:34:37;17.47;;;12.67;;
4047;SDS011;2038;51.728;6.674;2023-08-31T03:37:03;16.07;;;12.90;;
4047;SDS011;2038;51.728;6.674;2023-08-31T03:39:30;15.00;;;12.10;;
4047;SDS011;2038;51.728;6.674;2023-08-31T03:41:56;14.80;;;13.10;;
4047;SDS011;2038;51.728;6.674;2023-08-31T03:44:22;18.50;;;14.40;;
4047;SDS011;2038;51.728;6.674;2023-08-31T03:46:49;17.87;;;13.87;;
4047;SDS011;2038;51.728;6.674;2023-08-31T03:49:15;15.07;;;13.00;;
4047;SDS011;2038;51.728;6.674;2023-08-31T03:51:41;19.73;;;14.10;;
4047;SDS011;2038;51.728;6.674;2023-08-31T03:54:08;17.60;;;13.10;;
4047;SDS011;2038;51.728;6.674;2023-08-31T03:56:34;22.47;;;14.40;;
4047;SDS011;2038;51.728;6.674;2023-08-31T03:59:01;23.30;;;15.40;;
4047;SDS011;2038;51.728;6.674;2023-08-31T04:01:31;23.97;;;14.60;;
4047;SDS011;2038;51.728;6.674;2023-08-31T04:03:57;19.40;;;13.97;;
4047;SDS011;2038;51.728;6.674;2023-08-31T04:06:24;22.37;;;15.93;;
4047;SDS011;2038;51.728;6.674;2023-08-31T04:08:50;18.63;;;14.87;;
4047;SDS011;2038;51.728;6.674;2023-08-31T04:11:16;21.93;;;15.10;;
4047;SDS011;2038;51.728;6.674;2023-08-31T04:13:42;24.63;;;13.03;;
4047;SDS011;2038;51.728;6.674;2023-08-31T04:16:08;21.37;;;14.37;;
4047;SDS011;2038;51.728;6.674;2023-08-31T04:18:35;25.53;;;15.53;;
4047;SDS011;2038;51.728;6.674;2023-08-31T04:21:01;21.83;;;17.23;;
4047;SDS011;2038;51.728;6.674;2023-08-31T04:23:28;20.90;;;16.00;;
4047;SDS011;2038;51.728;6.674;2023-08-31T04:25:54;19.23;;;14.83;;
4047;SDS011;2038;51.728;6.674;2023-08-31T04:28:22;20.63;;;17.23;;
4047;SDS011;2038;51.728;6.674;2023-08-31T04:30:49;20.70;;;16.40;;
4047;SDS011;2038;51.728;6.674;2023-08-31T04:33:16;24.10;;;17.03;;
4047;SDS011;2038;51.728;6.674;2023-08-31T04:35:43;21.50;;;17.53;;
4047;SDS011;2038;51.728;6.674;2023-08-31T04:38:09;27.27;;;18.83;;
4047;SDS011;2038;51.728;6.674;2023-08-31T04:40:36;27.30;;;19.00;;
4047;SDS011;2038;51.728;6.674;2023-08-31T04:43:02;28.40;;;19.17;;
4047;SDS011;2038;51.728;6.674;2023-08-31T04:45:29;22.80;;;18.20;;
4047;SDS011;2038;51.728;6.674;2023-08-31T04:47:55;27.23;;;20.37;;
4047;SDS011;2038;51.728;6.674;2023-08-31T04:50:21;26.90;;;21.23;;
4047;SDS011;2038;51.728;6.674;2023-08-31T04:52:48;34.60;;;21.13;;
4047;SDS011;2038;51.728;6.674;2023-08-31T04:55:14;36.13;;;24.37;;
4047;SDS011;2038;51.728;6.674;2023-08-31T04:57:40;30.90;;;22.60;;
4047;SDS011;2038;51.728;6.674;2023-08-31T05:00:06;30.90;;;23.30;;
4047;SDS011;2038;51.728;6.674;2023-08-31T05:02:34;35.37;;;23.43;;
4047;SDS011;2038;51.728;6.674;2023-08-31T05:05:01;29.53;;;22.87;;
4047;SDS011;2038;51.728;6.674;2023-08-31T05:07:27;32.43;;;23.20;;
4047;SDS011;2038;51.728;6.674;2023-08-31T05:09:54;37.10;;;24.77;;
4047;SDS011;2038;51.728;6.674;2023-08-31T05:12:20;29.80;;;23.20;;
4047;SDS011;2038;51.728;6.674;2023-08-31T05:14:46;29.43;;;22.80;;
4047;SDS011;2038;51.728;6.674;2023-08-31T05:17:12;31.40;;;23.83;;
4047;SDS011;2038;51.728;6.674;2023-08-31T05:19:38;29.50;;;22.97;;
4047;SDS011;2038;51.728;6.674;2023-08-31T05:22:05;33.63;;;24.87;;
4047;SDS011;2038;51.728;6.674;2023-08-31T05:24:31;30.73;;;24.67;;
4047;SDS011;2038;51.728;6.674;2023-08-31T05:26:58;33.90;;;23.93;;
4047;SDS011;2038;51.728;6.674;2023-08-31T05:29:24;35.13;;;25.80;;
4047;SDS011;2038;51.728;6.674;2023-08-31T05:31:51;33.20;;;25.77;;
4047;SDS011;2038;51.728;6.674;2023-08-31T05:34:20;35.40;;;26.10;;
4047;SDS011;2038;51.728;6.674;2023-08-31T05:36:48;32.70;;;23.10;;
4047;SDS011;2038;51.728;6.674;2023-08-31T05:39:14;33.67;;;25.60;;
4047;SDS011;2038;51.728;6.674;2023-08-31T05:41:41;37.17;;;26.70;;
4047;SDS011;2038;51.728;6.674;2023-08-31T05:44:09;34.40;;;24.07;;
4047;SDS011;2038;51.728;6.674;2023-08-31T05:46:35;33.80;;;24.40;;
4047;SDS011;2038;51.728;6.674;2023-08-31T05:49:03;32.07;;;24.30;;
4047;SDS011;2038;51.728;6.674;2023-08-31T05:51:29;38.67;;;24.30;;
4047;SDS011;2038;51.728;6.674;2023-08-31T05:53:56;36.57;;;24.67;;
4047;SDS011;2038;51.728;6.674;2023-08-31T05:56:22;27.10;;;22.03;;
4047;SDS011;2038;51.728;6.674;2023-08-31T05:58:48;29.40;;;22.10;;
4047;SDS011;2038;51.728;6.674;2023-08-31T06:01:15;26.10;;;20.80;;
4047;SDS011;2038;51.728;6.674;2023-08-31T06:03:42;24.10;;;21.07;;
4047;SDS011;2038;51.728;6.674;2023-08-31T06:06:08;29.07;;;23.27;;
4047;SDS011;2038;51.728;6.674;2023-08-31T06:08:34;32.90;;;21.77;;
4047;SDS011;2038;51.728;6.674;2023-08-31T06:11:00;28.77;;;21.90;;
4047;SDS011;2038;51.728;6.674;2023-08-31T06:13:26;29.40;;;22.53;;
4047;SDS011;2038;51.728;6.674;2023-08-31T06:15:53;31.60;;;21.40;;
4047;SDS011;2038;51.728;6.674;2023-08-31T06:18:20;25.43;;;20.83;;
4047;SDS011;2038;51.728;6.674;2023-08-31T06:20:48;30.57;;;23.17;;
4047;SDS011;2038;51.728;6.674;2023-08-31T06:23:15;24.10;;;19.73;;
4047;SDS011;2038;51.728;6.674;2023-08-31T06:25:41;32.00;;;21.53;;
4047;SDS011;2038;51.728;6.674;2023-08-31T06:28:07;24.87;;;19.20;;
4047;SDS011;2038;51.728;6.674;2023-08-31T06:30:36;41.63;;;22.17;;
4047;SDS011;2038;51.728;6.674;2023-08-31T06:33:03;24.27;;;19.83;;
4047;SDS011;2038;51.728;6.674;2023-08-31T06:35:29;26.87;;;18.63;;
4047;SDS011;2038;51.728;6.674;2023-08-31T06:37:56;23.60;;;17.43;;
4047;SDS011;2038;51.728;6.674;2023-08-31T06:40:22;20.47;;;17.00;;
4047;SDS011;2038;51.728;6.674;2023-08-31T06:42:49;21.73;;;16.87;;
4047;SDS011;2038;51.728;6.674;2023-08-31T06:45:15;21.53;;;17.13;;
4047;SDS011;2038;51.728;6.674;2023-08-31T06:47:41;20.83;;;16.83;;
4047;SDS011;2038;51.728;6.674;2023-08-31T06:50:08;20.33;;;16.40;;
4047;SDS011;2038;51.728;6.674;2023-08-31T06:52:34;22.00;;;16.50;;
4047;SDS011;2038;51.728;6.674;2023-08-31T06:55:01;18.47;;;14.20;;
4047;SDS011;2038;51.728;6.674;2023-08-31T06:57:28;21.97;;;14.90;;
4047;SDS011;2038;51.728;6.674;2023-08-31T06:59:54;15.90;;;14.20;;
4047;SDS011;2038;51.728;6.674;2023-08-31T07:02:20;18.40;;;14.80;;
4047;SDS011;2038;51.728;6.674;2023-08-31T07:04:47;16.03;;;11.27;;
4047;SDS011;2038;51.728;6.674;2023-08-31T07:07:14;16.33;;;11.63;;
4047;SDS011;2038;51.728;6.674;2023-08-31T07:09:42;14.17;;;11.13;;
4047;SDS011;2038;51.728;6.674;2023-08-31T07:12:09;15.57;;;10.10;;
4047;SDS011;2038;51.728;6.674;2023-08-31T07:14:36;12.67;;;10.30;;
4047;SDS011;2038;51.728;6.674;2023-08-31T07:17:03;11.70;;;9.87;;
4047;SDS011;2038;51.728;6.674;2023-08-31T07:19:29;18.97;;;11.80;;
4047;SDS011;2038;51.728;6.674;2023-08-31T07:21:55;13.30;;;10.47;;
4047;SDS011;2038;51.728;6.674;2023-08-31T07:24:22;13.30;;;9.37;;
4047;SDS011;2038;51.728;6.674;2023-08-31T07:26:49;17.03;;;11.13;;
4047;SDS011;2038;51.728;6.674;2023-08-31T07:29:16;14.07;;;10.37;;
4047;SDS011;2038;51.728;6.674;2023-08-31T07:31:42;13.93;;;9.57;;
4047;SDS011;2038;51.728;6.674;2023-08-31T07:34:08;14.03;;;10.43;;
4047;SDS011;2038;51.728;6.674;2023-08-31T07:36:34;13.20;;;8.93;;
4047;SDS011;2038;51.728;6.674;2023-08-31T07:39:01;13.07;;;9.43;;
4047;SDS011;2038;51.728;6.674;2023-08-31T07:41:28;12.30;;;8.63;;
4047;SDS011;2038;51.728;6.674;2023-08-31T07:43:54;14.67;;;9.30;;
4047;SDS011;2038;51.728;6.674;2023-08-31T07:46:21;20.43;;;9.00;;
4047;SDS011;2038;51.728;6.674;2023-08-31T07:48:47;12.30;;;9.43;;
4047;SDS011;2038;51.728;6.674;2023-08-31T07:51:15;8.60;;;7.70;;
4047;SDS011;2038;51.728;6.674;2023-08-31T07:53:41;11.73;;;7.97;;
4047;SDS011;2038;51.728;6.674;2023-08-31T07:56:08;8.73;;;7.23;;
4047;SDS011;2038;51.728;6.674;2023-08-31T07:58:34;13.53;;;7.27;;
4047;SDS011;2038;51.728;6.674;2023-08-31T08:01:00;14.13;;;8.00;;
4047;SDS011;2038;51.728;6.674;2023-08-31T08:03:26;8.90;;;7.90;;
4047;SDS011;2038;51.728;6.674;2023-08-31T08:05:53;10.00;;;8.73;;
4047;SDS011;2038;51.728;6.674;2023-08-31T08:08:20;10.63;;;7.53;;
4047;SDS011;2038;51.728;6.674;2023-08-31T08:10:47;12.50;;;8.33;;
4047;SDS011;2038;51.728;6.674;2023-08-31T08:13:17;8.13;;;7.27;;
4047;SDS011;2038;51.728;6.674;2023-08-31T08:15:44;14.07;;;7.20;;
4047;SDS011;2038;51.728;6.674;2023-08-31T08:18:11;8.90;;;7.40;;
4047;SDS011;2038;51.728;6.674;2023-08-31T08:20:37;12.13;;;7.67;;
4047;SDS011;2038;51.728;6.674;2023-08-31T08:23:04;13.63;;;6.50;;
4047;SDS011;2038;51.728;6.674;2023-08-31T08:25:31;12.37;;;7.20;;
4047;SDS011;2038;51.728;6.674;2023-08-31T08:27:58;8.80;;;5.47;;
4047;SDS011;2038;51.728;6.674;2023-08-31T08:30:24;10.20;;;7.50;;
4047;SDS011;2038;51.728;6.674;2023-08-31T08:32:51;7.00;;;6.30;;
4047;SDS011;2038;51.728;6.674;2023-08-31T08:35:17;8.83;;;6.53;;
4047;SDS011;2038;51.728;6.674;2023-08-31T08:37:43;8.73;;;6.20;;
4047;SDS011;2038;51.728;6.674;2023-08-31T08:40:09;8.90;;;5.37;;
4047;SDS011;2038;51.728;6.674;2023-08-31T08:42:40;8.33;;;6.10;;
4047;SDS011;2038;51.728;6.674;2023-08-31T08:45:15;6.50;;;5.60;;
4047;SDS011;2038;51.728;6.674;2023-08-31T08:47:43;11.93;;;6.90;;
4047;SDS011;2038;51.728;6.674;2023-08-31T08:50:11;9.30;;;6.80;;
4047;SDS011;2038;51.728;6.674;2023-08-31T08:52:39;7.63;;;5.97;;
4047;SDS011;2038;51.728;6.674;2023-08-31T08:55:06;9.23;;;5.67;;
4047;SDS011;2038;51.728;6.674;2023-08-31T08:57:36;9.57;;;5.93;;
4047;SDS011;2038;51.728;6.674;2023-08-31T09:00:03;7.70;;;5.67;;
4047;SDS011;2038;51.728;6.674;2023-08-31T09:02:30;9.00;;;5.53;;
4047;SDS011;2038;51.728;6.674;2023-08-31T09:04:56;14.63;;;5.70;;
4047;SDS011;2038;51.728;6.674;2023-08-31T09:07:23;10.93;;;5.70;;
4047;SDS011;2038;51.728;6.674;2023-08-31T09:09:52;7.40;;;5.17;;
4047;SDS011;2038;51.728;6.674;2023-08-31T09:12:22;8.00;;;4.80;;
4047;SDS011;2038;51.728;6.674;2023-08-31T09:14:59;10.10;;;5.40;;
4047;SDS011;2038;51.728;6.674;2023-08-31T09:17:39;6.50;;;5.80;;
4047;SDS011;2038;51.728;6.674;2023-08-31T09:20:08;5.90;;;4.10;;
4047;SDS011;2038;51.728;6.674;2023-08-31T09:22:35;8.00;;;5.47;;
4047;SDS011;2038;51.728;6.674;2023-08-31T09:25:06;13.03;;;5.77;;
4047;SDS011;2038;51.728;6.674;2023-08-31T09:27:36;8.10;;;5.87;;
4047;SDS011;2038;51.728;6.674;2023-08-31T09:30:04;8.40;;;5.20;;
4047;SDS011;2038;51.728;6.674;2023-08-31T09:32:33;8.60;;;4.97;;
4047;SDS011;2038;51.728;6.674;2023-08-31T09:35:00;6.93;;;5.43;;
4047;SDS011;2038;51.728;6.674;2023-08-31T09:37:28;12.03;;;4.60;;
4047;SDS011;2038;51.728;6.674;2023-08-31T09:39:55;11.00;;;5.03;;
4047;SDS011;2038;51.728;6.674;2023-08-31T09:42:36;3.90;;;3.50;;
4047;SDS011;2038;51.728;6.674;2023-08-31T09:45:03;6.90;;;4.63;;
4047;SDS011;2038;51.728;6.674;2023-08-31T09:47:30;8.60;;;4.80;;
4047;SDS011;2038;51.728;6.674;2023-08-31T09:49:56;4.67;;;3.90;;
4047;SDS011;2038;51.728;6.674;2023-08-31T09:52:25;8.63;;;3.70;;
4047;SDS011;2038;51.728;6.674;2023-08-31T09:54:51;7.40;;;4.47;;
4047;SDS011;2038;51.728;6.674;2023-08-31T09:57:19;7.50;;;4.20;;
4047;SDS011;2038;51.728;6.674;2023-08-31T09:59:47;8.73;;;4.77;;
4047;SDS011;2038;51.728;6.674;2023-08-31T10:02:14;6.60;;;4.07;;
4047;SDS011;2038;51.728;6.674;2023-08-31T10:04:43;10.57;;;4.60;;
4047;SDS011;2038;51.728;6.674;2023-08-31T10:07:10;5.60;;;4.17;;
4047;SDS011;2038;51.728;6.674;2023-08-31T10:09:38;9.17;;;5.00;;
4047;SDS011;2038;51.728;6.674;2023-08-31T10:12:05;7.53;;;4.10;;
4047;SDS011;2038;51.728;6.674;2023-08-31T10:14:33;8.47;;;4.73;;
4047;SDS011;2038;51.728;6.674;2023-08-31T10:17:00;6.93;;;4.73;;
4047;SDS011;2038;51.728;6.674;2023-08-31T10:19:28;7.60;;;4.40;;
4047;SDS011;2038;51.728;6.674;2023-08-31T10:21:54;6.20;;;4.40;;
4047;SDS011;2038;51.728;6.674;2023-08-31T10:27:23;6.90;;;5.00;;
4047;SDS011;2038;51.728;6.674;2023-08-31T10:29:50;7.00;;;5.03;;
4047;SDS011;2038;51.728;6.674;2023-08-31T10:32:17;5.10;;;4.60;;
4047;SDS011;2038;51.728;6.674;2023-08-31T10:34:43;6.73;;;4.20;;
4047;SDS011;2038;51.728;6.674;2023-08-31T10:37:29;6.27;;;3.40;;
4047;SDS011;2038;51.728;6.674;2023-08-31T10:40:09;10.20;;;3.53;;
4047;SDS011;2038;51.728;6.674;2023-08-31T10:42:43;4.83;;;3.50;;
4047;SDS011;2038;51.728;6.674;2023-08-31T10:45:12;6.43;;;3.30;;
4047;SDS011;2038;51.728;6.674;2023-08-31T10:47:42;8.53;;;3.87;;
4047;SDS011;2038;51.728;6.674;2023-08-31T10:50:21;7.23;;;4.27;;
4047;SDS011;2038;51.728;6.674;2023-08-31T10:52:49;3.37;;;3.03;;
4047;SDS011;2038;51.728;6.674;2023-08-31T10:55:16;9.03;;;3.50;;
4047;SDS011;2038;51.728;6.674;2023-08-31T10:57:42;3.50;;;2.90;;
4047;SDS011;2038;51.728;6.674;2023-08-31T11:00:10;4.00;;;3.17;;
4047;SDS011;2038;51.728;6.674;2023-08-31T11:02:42;4.67;;;3.43;;
4047;SDS011;2038;51.728;6.674;2023-08-31T11:05:18;6.73;;;3.53;;
4047;SDS011;2038;51.728;6.674;2023-08-31T11:07:46;7.57;;;3.30;;
4047;SDS011;2038;51.728;6.674;2023-08-31T11:10:18;4.80;;;3.97;;
4047;SDS011;2038;51.728;6.674;2023-08-31T11:12:49;6.13;;;3.40;;
4047;SDS011;2038;51.728;6.674;2023-08-31T11:15:18;6.30;;;4.00;;
4047;SDS011;2038;51.728;6.674;2023-08-31T11:17:50;7.60;;;3.00;;
4047;SDS011;2038;51.728;6.674;2023-08-31T11:20:20;5.73;;;3.23;;
4047;SDS011;2038;51.728;6.674;2023-08-31T11:22:52;8.40;;;3.30;;
4047;SDS011;2038;51.728;6.674;2023-08-31T11:25:19;6.20;;;3.00;;
4047;SDS011;2038;51.728;6.674;2023-08-31T11:27:55;4.97;;;3.30;;
4047;SDS011;2038;51.728;6.674;2023-08-31T11:30:25;4.20;;;3.10;;
4047;SDS011;2038;51.728;6.674;2023-08-31T11:32:56;5.07;;;3.70;;
4047;SDS011;2038;51.728;6.674;2023-08-31T11:35:30;5.30;;;4.00;;
4047;SDS011;2038;51.728;6.674;2023-08-31T11:38:00;6.67;;;4.00;;
4047;SDS011;2038;51.728;6.674;2023-08-31T11:40:28;5.00;;;3.37;;
4047;SDS011;2038;51.728;6.674;2023-08-31T11:42:54;7.80;;;3.90;;
4047;SDS011;2038;51.728;6.674;2023-08-31T11:45:22;4.70;;;3.13;;
4047;SDS011;2038;51.728;6.674;2023-08-31T11:47:50;7.40;;;3.00;;
4047;SDS011;2038;51.728;6.674;2023-08-31T11:50:18;4.83;;;2.77;;
4047;SDS011;2038;51.728;6.674;2023-08-31T11:52:46;5.00;;;2.80;;
4047;SDS011;2038;51.728;6.674;2023-08-31T11:55:14;5.50;;;2.97;;
4047;SDS011;2038;51.728;6.674;2023-08-31T11:57:49;4.00;;;3.17;;
4047;SDS011;2038;51.728;6.674;2023-08-31T12:00:17;9.20;;;3.50;;
4047;SDS011;2038;51.728;6.674;2023-08-31T12:02:45;4.60;;;2.67;;
4047;SDS011;2038;51.728;6.674;2023-08-31T12:05:29;7.40;;;3.27;;
4047;SDS011;2038;51.728;6.674;2023-08-31T12:08:11;7.43;;;3.87;;
4047;SDS011;2038;51.728;6.674;2023-08-31T12:10:42;6.07;;;3.30;;
4047;SDS011;2038;51.728;6.674;2023-08-31T12:13:09;5.37;;;3.07;;
4047;SDS011;2038;51.728;6.674;2023-08-31T12:15:36;5.00;;;2.80;;
4047;SDS011;2038;51.728;6.674;2023-08-31T12:18:06;4.63;;;2.53;;
4047;SDS011;2038;51.728;6.674;2023-08-31T12:20:34;3.87;;;2.87;;
4047;SDS011;2038;51.728;6.674;2023-08-31T12:23:08;6.80;;;3.17;;
4047;SDS011;2038;51.728;6.674;2023-08-31T12:25:34;8.70;;;2.90;;
4047;SDS011;2038;51.728;6.674;2023-08-31T12:28:01;6.37;;;2.80;;
4047;SDS011;2038;51.728;6.674;2023-08-31T12:30:28;6.47;;;3.03;;
4047;SDS011;2038;51.728;6.674;2023-08-31T12:32:54;4.43;;;2.87;;
4047;SDS011;2038;51.728;6.674;2023-08-31T12:35:21;9.20;;;3.67;;
4047;SDS011;2038;51.728;6.674;2023-08-31T12:37:47;4.83;;;3.23;;
4047;SDS011;2038;51.728;6.674;2023-08-31T12:40:13;4.00;;;3.40;;
4047;SDS011;2038;51.728;6.674;2023-08-31T12:42:40;2.80;;;2.13;;
4047;SDS011;2038;51.728;6.674;2023-08-31T12:45:07;4.90;;;3.10;;
4047;SDS011;2038;51.728;6.674;2023-08-31T12:47:34;7.40;;;2.80;;
4047;SDS011;2038;51.728;6.674;2023-08-31T12:50:00;6.53;;;3.20;;
4047;SDS011;2038;51.728;6.674;2023-08-31T12:52:28;4.47;;;2.90;;
4047;SDS011;2038;51.728;6.674;2023-08-31T12:54:54;3.60;;;2.40;;
4047;SDS011;2038;51.728;6.674;2023-08-31T12:57:20;7.67;;;3.10;;
4047;SDS011;2038;51.728;6.674;2023-08-31T12:59:46;4.20;;;2.63;;
4047;SDS011;2038;51.728;6.674;2023-08-31T13:02:12;3.33;;;2.47;;
4047;SDS011;2038;51.728;6.674;2023-08-31T13:04:39;6.27;;;3.17;;
4047;SDS011;2038;51.728;6.674;2023-08-31T13:07:05;5.80;;;3.07;;
4047;SDS011;2038;51.728;6.674;2023-08-31T13:09:33;3.20;;;2.67;;
4047;SDS011;2038;51.728;6.674;2023-08-31T13:11:59;2.50;;;2.30;;
4047;SDS011;2038;51.728;6.674;2023-08-31T13:14:25;3.73;;;2.03;;
4047;SDS011;2038;51.728;6.674;2023-08-31T13:16:51;3.00;;;2.70;;
4047;SDS011;2038;51.728;6.674;2023-08-31T13:19:18;5.63;;;2.90;;
4047;SDS011;2038;51.728;6.674;2023-08-31T13:21:44;4.13;;;3.03;;
4047;SDS011;2038;51.728;6.674;2023-08-31T13:24:10;9.23;;;2.67;;
4047;SDS011;2038;51.728;6.674;2023-08-31T13:26:37;3.07;;;2.40;;
4047;SDS011;2038;51.728;6.674;2023-08-31T13:29:03;3.77;;;2.93;;
4047;SDS011;2038;51.728;6.674;2023-08-31T13:31:29;3.70;;;3.33;;
4047;SDS011;2038;51.728;6.674;2023-08-31T13:33:56;3.60;;;2.87;;
4047;SDS011;2038;51.728;6.674;2023-08-31T13:36:22;3.47;;;3.17;;
4047;SDS011;2038;51.728;6.674;2023-08-31T13:38:49;4.37;;;2.90;;
4047;SDS011;2038;51.728;6.674;2023-08-31T13:41:15;5.40;;;3.83;;
4047;SDS011;2038;51.728;6.674;2023-08-31T13:43:42;6.70;;;3.90;;
4047;SDS011;2038;51.728;6.674;2023-08-31T13:46:08;7.13;;;4.23;;
4047;SDS011;2038;51.728;6.674;2023-08-31T13:48:34;8.70;;;5.27;;
4047;SDS011;2038;51.728;6.674;2023-08-31T13:51:01;7.87;;;5.30;;
4047;SDS011;2038;51.728;6.674;2023-08-31T13:53:27;8.27;;;4.27;;
4047;SDS011;2038;51.728;6.674;2023-08-31T13:55:54;5.07;;;4.57;;
4047;SDS011;2038;51.728;6.674;2023-08-31T13:58:20;7.40;;;5.07;;
4047;SDS011;2038;51.728;6.674;2023-08-31T14:00:46;10.93;;;4.30;;
4047;SDS011;2038;51.728;6.674;2023-08-31T14:03:12;5.03;;;3.60;;
4047;SDS011;2038;51.728;6.674;2023-08-31T14:05:39;6.50;;;4.97;;
4047;SDS011;2038;51.728;6.674;2023-08-31T14:08:05;6.50;;;4.73;;
4047;SDS011;2038;51.728;6.674;2023-08-31T14:10:31;5.80;;;4.23;;
4047;SDS011;2038;51.728;6.674;2023-08-31T14:12:58;5.00;;;4.17;;
4047;SDS011;2038;51.728;6.674;2023-08-31T14:15:24;5.30;;;3.73;;
4047;SDS011;2038;51.728;6.674;2023-08-31T14:17:51;7.93;;;3.80;;
4047;SDS011;2038;51.728;6.674;2023-08-31T14:20:18;5.10;;;4.30;;
4047;SDS011;2038;51.728;6.674;2023-08-31T14:22:44;12.70;;;4.90;;
4047;SDS011;2038;51.728;6.674;2023-08-31T14:25:11;5.00;;;4.40;;
4047;SDS011;2038;51.728;6.674;2023-08-31T14:27:37;5.50;;;5.00;;
4047;SDS011;2038;51.728;6.674;2023-08-31T14:30:04;6.70;;;5.30;;
4047;SDS011;2038;51.728;6.674;2023-08-31T14:32:31;7.87;;;5.93;;
4047;SDS011;2038;51.728;6.674;2023-08-31T14:34:58;6.00;;;5.30;;
4047;SDS011;2038;51.728;6.674;2023-08-31T14:37:24;7.97;;;4.63;;
4047;SDS011;2038;51.728;6.674;2023-08-31T14:39:51;5.97;;;5.20;;
4047;SDS011;2038;51.728;6.674;2023-08-31T14:42:17;5.30;;;4.80;;
4047;SDS011;2038;51.728;6.674;2023-08-31T14:44:46;6.40;;;5.13;;
4047;SDS011;2038;51.728;6.674;2023-08-31T14:47:14;6.47;;;5.47;;
4047;SDS011;2038;51.728;6.674;2023-08-31T14:49:40;6.00;;;5.03;;
4047;SDS011;2038;51.728;6.674;2023-08-31T14:52:06;8.13;;;5.90;;
4047;SDS011;2038;51.728;6.674;2023-08-31T14:54:33;5.77;;;5.27;;
4047;SDS011;2038;51.728;6.674;2023-08-31T14:56:59;7.20;;;5.37;;
4047;SDS011;2038;51.728;6.674;2023-08-31T14:59:28;8.67;;;5.60;;
4047;SDS011;2038;51.728;6.674;2023-08-31T15:01:54;9.77;;;6.03;;
4047;SDS011;2038;51.728;6.674;2023-08-31T15:04:20;7.40;;;5.60;;
4047;SDS011;2038;51.728;6.674;2023-08-31T15:06:47;6.80;;;6.10;;
4047;SDS011;2038;51.728;6.674;2023-08-31T15:09:13;9.63;;;6.73;;
4047;SDS011;2038;51.728;6.674;2023-08-31T15:11:40;6.97;;;5.70;;
4047;SDS011;2038;51.728;6.674;2023-08-31T15:14:06;7.60;;;5.90;;
4047;SDS011;2038;51.728;6.674;2023-08-31T15:16:32;8.77;;;5.93;;
4047;SDS011;2038;51.728;6.674;2023-08-31T15:18:59;7.27;;;6.57;;